Airfield :
LOGIN :

Register | Disclaimer

   EN    FR    IT 

 










Legend :    VFR   Marginal VFR   IFR   Intensive IFR   Very Intensive IFR
Visi :
Ceiling :
>= 8 km
>= 3000ft
5 to 8 km
1000 to 3000 ft
1500m to 5 km
500 to 1000 ft
800 to 1500m
200 to 500 ft
< 800m
< 200 ft
Symbols :   Thunderstorms  Fog  Heavy snow  Heavy precipitations  Wind > 20 kt
SIGMETs :     Misc.  Thunderstorms  Icing  Turbulence  Mountain Waves  Volcanic Ashes






- Airport Elevation : 287 ft


LFRL - Lanveoc Poulmic

CURRENT METAR :
  • 220030Z AUTO 18009KT 0900 0700 R23/0900D R05/1200D FG VV/// 11/11 Q1000 TEMPO 4000 BECMG 24010KT

EXPIRED METARs :
  • 220000Z AUTO 18009KT 2100 1300 R23/P2000 R05/P2000 -DZ BR BKN002 BKN009 OVC016 11/11 Q1001 TEMPO 4000 VV/// BECMG 24010KT
  • 212330Z AUTO 20009KT 2500 -DZ BR BKN002 OVC016 11/11 Q1002 TEMPO 4000 VV///
  • 212300Z AUTO 18010KT 5000 -DZ BR BKN002 OVC068 11/11 Q1002 TEMPO VV/// BECMG 24010KT
  • 212230Z AUTO 18007KT 1800 1200 R23/1700D R05/1600D -DZ BR BKN002 BKN006 BKN020 11/11 Q1003 TEMPO 4000 VV/// BECMG 24010KT
  • 212200Z AUTO 20005KT 4700 DZ BR FEW004 SCT024 BKN030 11/11 Q1004 TEMPO VV///
  • 212130Z AUTO 20005KT 8000 -RA SCT036 BKN062 OVC072 11/11 Q1004 TEMPO 4000 VV///
  • 212100Z AUTO 24005KT 9999 -RA SCT004 SCT012 BKN024 11/11 Q1004 TEMPO 4000 VV///
  • 212030Z AUTO 25006KT 5000 -RA BR BKN003 BKN008 BKN013 12/11 Q1005 TEMPO 0500 FG VV///
  • 212000Z AUTO 25007KT 7000 -RA BKN003 OVC009 12/11 Q1006 TEMPO 0500 FG VV///

TAF TAF LFRL
Valid from the 21 at 06:00 until the 22 at 06:00 UTC


210500Z 2106/2206 21015G25KT 8000 RA BKN010 OVC050
TEMPO 2106/2109 4000 BKN007
BECMG 2109/2111 21020G35KT 4000 RA BKN004 OVC006
PROB40
TEMPO 2109/2112 2000 +RA BKN003
BECMG 2112/2114 2000 OVC002
TEMPO 2114/2206 0500 FG VV///
BECMG 2115/2117 25015G25KT
BECMG 2119/2121 24010KT
PROB30
TEMPO 2122/2203 4000 BKN004
BECMG 2203/2206 22015G25KT



MET'MAP, your aeronautical weather chart ! - Copyright ORBIFLY December 2007 - Disclaimer

ORBIFLY MET'MAP TEAM :

Programming & Development : Alexandra Zaïnal
Original concept : Baudouin d'Aumeries
Technical & hardware support : Manuel Goepfert
Assistance : Marc-Olivier Méhu




SOURCES & CREDITS :

   NOAA